Time;durP1;ratioP1;P1;durP2;ratioP2;P2;SDS_P1;SDS_P2;PMS_P1;PMS_P2;Temp;Humidity;BMP_temperature;BMP_pressure;BME280_temperature;BME280_humidity;BME280_pressure;Samples;Min_cycle;Max_cycle;Signal;HPM_P1;HPM_P2
2023/03/19 00:00:29;;;;;;;70.67;37.13;;;;;;;;;;5078407;28;20235;-45
2023/03/19 00:03:16;;;;;;;69.27;37.30;;;;;;;;;;5077747;28;20640;-45
2023/03/19 00:05:52;;;;;;;74.17;39.10;;;;;;;;;;5077976;28;20200;-45
2023/03/19 00:08:20;;;;;;;61.67;35.47;;;;;;;;;;5078146;28;20199;-45
2023/03/19 00:10:48;;;;;;;170.93;117.20;;;;;;;;;;5077838;28;20597;-48
2023/03/19 00:13:15;;;;;;;94.60;57.53;;;;;;;;;;5077784;28;20217;-46
2023/03/19 00:15:42;;;;;;;71.47;40.87;;;;;;;;;;5077483;28;20633;-45
2023/03/19 00:18:09;;;;;;;61.57;36.90;;;;;;;;;;5077780;28;20203;-46
2023/03/19 00:20:37;;;;;;;76.60;37.53;;;;;;;;;;5077492;28;20223;-45
2023/03/19 00:23:05;;;;;;;75.90;37.87;;;;;;;;;;5076593;28;20645;-45
2023/03/19 00:25:32;;;;;;;63.30;37.97;;;;;;;;;;5077291;28;20203;-45
2023/03/19 00:28:00;;;;;;;60.53;36.70;;;;;;;;;;5077757;28;20203;-47
2023/03/19 00:30:28;;;;;;;61.97;34.43;;;;;;;;;;5077999;28;20203;-46
2023/03/19 00:32:55;;;;;;;121.03;63.63;;;;;;;;;;5077503;28;20233;-45
2023/03/19 00:35:22;;;;;;;71.00;38.80;;;;;;;;;;5077067;28;20207;-45
2023/03/19 00:37:49;;;;;;;72.43;37.00;;;;;;;;;;5076379;28;20534;-45
2023/03/19 00:40:17;;;;;;;71.23;35.77;;;;;;;;;;5077104;28;20207;-46
2023/03/19 00:42:44;;;;;;;70.20;36.33;;;;;;;;;;5076910;28;20684;-45
2023/03/19 00:45:12;;;;;;;71.63;36.50;;;;;;;;;;5077212;28;20195;-45
2023/03/19 00:47:39;;;;;;;65.20;33.50;;;;;;;;;;5076846;28;20203;-46
2023/03/19 00:50:07;;;;;;;59.33;33.93;;;;;;;;;;5077058;28;20210;-45
2023/03/19 00:52:34;;;;;;;362.03;160.93;;;;;;;;;;5077030;28;20207;-45
2023/03/19 00:55:01;;;;;;;573.87;353.77;;;;;;;;;;5076608;28;20199;-48
2023/03/19 00:57:29;;;;;;;196.57;87.67;;;;;;;;;;5076109;28;20196;-45
2023/03/19 00:59:56;;;;;;;97.73;46.07;;;;;;;;;;5076611;28;20743;-45
2023/03/19 01:02:23;;;;;;;101.37;42.33;;;;;;;;;;5076071;28;20227;-45
2023/03/19 01:04:51;;;;;;;105.13;42.67;;;;;;;;;;5076773;28;20207;-45
2023/03/19 01:07:18;;;;;;;89.30;40.43;;;;;;;;;;5076763;28;20210;-47
2023/03/19 01:09:45;;;;;;;86.37;38.43;;;;;;;;;;5076562;28;20202;-45
2023/03/19 01:12:12;;;;;;;74.40;36.73;;;;;;;;;;5075845;28;20290;-45
2023/03/19 01:14:40;;;;;;;86.57;38.67;;;;;;;;;;5075523;28;20644;-45
2023/03/19 01:17:07;;;;;;;211.37;97.57;;;;;;;;;;5075747;28;20199;-45
2023/03/19 01:19:35;;;;;;;147.60;50.23;;;;;;;;;;5075407;28;20214;-45
2023/03/19 01:22:03;;;;;;;94.53;39.60;;;;;;;;;;5076165;28;20226;-45
2023/03/19 01:24:32;;;;;;;88.17;39.07;;;;;;;;;;5075957;28;20199;-45
2023/03/19 01:27:00;;;;;;;64.27;34.00;;;;;;;;;;5075527;28;20225;-44
2023/03/19 01:29:32;;;;;;;80.27;37.90;;;;;;;;;;5075496;28;20539;-45
2023/03/19 01:32:08;;;;;;;68.17;33.23;;;;;;;;;;5075477;28;20195;-45
2023/03/19 01:35:04;;;;;;;87.00;38.80;;;;;;;;;;5063120;28;20543;-45
2023/03/19 01:37:32;;;;;;;276.93;110.07;;;;;;;;;;5075842;28;20199;-45
2023/03/19 01:40:00;;;;;;;915.70;509.97;;;;;;;;;;5075251;28;20203;-44
2023/03/19 01:42:27;;;;;;;230.00;92.03;;;;;;;;;;5074868;28;20665;-46
2023/03/19 01:45:36;;;;;;;157.87;53.97;;;;;;;;;;5075863;28;20641;-45
2023/03/19 01:48:41;;;;;;;124.47;44.33;;;;;;;;;;5073563;28;20207;-44
2023/03/19 01:51:16;;;;;;;88.03;36.53;;;;;;;;;;5043413;28;20230;-45
2023/03/19 01:54:13;;;;;;;76.20;35.60;;;;;;;;;;5071786;28;20199;-45
2023/03/19 01:57:08;;;;;;;81.63;36.50;;;;;;;;;;5061753;28;20494;-44
2023/03/19 02:00:06;;;;;;;170.90;76.27;;;;;;;;;;5008938;28;20228;-44
2023/03/19 02:02:43;;;;;;;149.50;62.83;;;;;;;;;;5075692;28;20219;-46
2023/03/19 02:05:50;;;;;;;151.20;48.27;;;;;;;;;;5003110;28;20220;-45
2023/03/19 02:08:21;;;;;;;106.93;41.43;;;;;;;;;;4997873;28;20213;-45
2023/03/19 02:10:50;;;;;;;87.63;38.23;;;;;;;;;;4998239;28;20297;-45
2023/03/19 02:13:18;;;;;;;92.77;38.20;;;;;;;;;;4997298;28;20217;-44
2023/03/19 02:15:45;;;;;;;70.27;35.17;;;;;;;;;;5013970;28;20232;-45
2023/03/19 02:18:14;;;;;;;73.77;35.73;;;;;;;;;;4998137;28;20264;-45
2023/03/19 02:20:47;;;;;;;725.73;331.83;;;;;;;;;;4982297;28;20283;-45
2023/03/19 02:23:49;;;;;;;236.17;78.73;;;;;;;;;;4997786;28;20244;-45
2023/03/19 02:26:21;;;;;;;194.20;55.17;;;;;;;;;;4997442;28;20643;-45
2023/03/19 02:28:51;;;;;;;149.20;48.17;;;;;;;;;;5013814;28;20682;-45
2023/03/19 02:31:25;;;;;;;125.40;44.50;;;;;;;;;;4997713;28;20205;-45
2023/03/19 02:34:00;;;;;;;78.93;36.43;;;;;;;;;;5013869;28;20228;-44
2023/03/19 02:36:55;;;;;;;79.33;35.90;;;;;;;;;;5028499;28;20203;-46
2023/03/19 02:39:31;;;;;;;73.77;36.20;;;;;;;;;;5070780;28;20656;-45
2023/03/19 02:41:59;;;;;;;1554.10;722.70;;;;;;;;;;5073879;28;20211;-45
2023/03/19 02:44:29;;;;;;;522.30;253.97;;;;;;;;;;5074316;28;20203;-45
2023/03/19 02:46:58;;;;;;;210.67;73.93;;;;;;;;;;5073797;28;20196;-45
2023/03/19 02:49:26;;;;;;;212.03;59.93;;;;;;;;;;5075441;28;20207;-45
2023/03/19 02:51:53;;;;;;;133.93;44.80;;;;;;;;;;5074088;28;20214;-45
2023/03/19 02:54:21;;;;;;;87.63;39.43;;;;;;;;;;5074047;28;20215;-45
2023/03/19 02:56:50;;;;;;;65.23;33.00;;;;;;;;;;5073713;28;20713;-45
2023/03/19 02:59:18;;;;;;;65.60;33.43;;;;;;;;;;5075034;28;20289;-47
2023/03/19 03:01:45;;;;;;;68.27;36.00;;;;;;;;;;5073629;28;20277;-45
2023/03/19 03:04:15;;;;;;;264.13;115.13;;;;;;;;;;5073705;28;20199;-45
2023/03/19 03:06:43;;;;;;;138.83;53.07;;;;;;;;;;5074242;28;20225;-45
2023/03/19 03:09:11;;;;;;;199.93;57.00;;;;;;;;;;5073914;28;20524;-45
2023/03/19 03:11:40;;;;;;;156.63;49.40;;;;;;;;;;5073925;28;20544;-45
2023/03/19 03:14:08;;;;;;;101.80;40.87;;;;;;;;;;5074668;28;20207;-45
2023/03/19 03:16:36;;;;;;;104.97;39.87;;;;;;;;;;5077094;28;20203;-45
2023/03/19 03:19:04;;;;;;;93.30;38.63;;;;;;;;;;5083548;28;20277;-45
2023/03/19 03:21:32;;;;;;;91.70;39.63;;;;;;;;;;5073775;28;20238;-45
2023/03/19 03:24:02;;;;;;;260.27;110.63;;;;;;;;;;5074546;28;20537;-46
2023/03/19 03:26:29;;;;;;;673.53;306.03;;;;;;;;;;5077668;28;20546;-45
2023/03/19 03:28:57;;;;;;;592.37;290.30;;;;;;;;;;5078615;28;20544;-46
2023/03/19 03:31:25;;;;;;;170.83;58.67;;;;;;;;;;5078299;28;20203;-45
2023/03/19 03:33:53;;;;;;;216.70;64.13;;;;;;;;;;5078623;28;20204;-46
2023/03/19 03:36:20;;;;;;;147.57;46.53;;;;;;;;;;5078497;28;20226;-45
2023/03/19 03:38:48;;;;;;;143.87;47.50;;;;;;;;;;5077337;28;20702;-45
2023/03/19 03:41:15;;;;;;;103.50;40.03;;;;;;;;;;5078159;28;20660;-45
2023/03/19 03:43:43;;;;;;;94.20;38.90;;;;;;;;;;5077525;28;20210;-44
2023/03/19 03:46:10;;;;;;;76.00;37.03;;;;;;;;;;5077366;28;20285;-44
2023/03/19 03:48:38;;;;;;;595.97;287.00;;;;;;;;;;5077404;28;20272;-44
2023/03/19 03:51:05;;;;;;;170.13;67.37;;;;;;;;;;5077286;28;20272;-45
2023/03/19 03:53:33;;;;;;;182.73;54.57;;;;;;;;;;5077158;28;20207;-45
2023/03/19 03:56:01;;;;;;;142.10;46.57;;;;;;;;;;5077350;28;20217;-44
2023/03/19 03:58:30;;;;;;;97.97;38.40;;;;;;;;;;5076751;28;20706;-45
2023/03/19 04:00:57;;;;;;;94.03;38.80;;;;;;;;;;5076928;28;20674;-45
2023/03/19 04:03:25;;;;;;;99.23;38.97;;;;;;;;;;5076997;28;20219;-45
2023/03/19 04:05:53;;;;;;;60.77;31.80;;;;;;;;;;5076702;28;20203;-45
2023/03/19 04:08:22;;;;;;;336.70;130.10;;;;;;;;;;5076670;28;20211;-45
2023/03/19 04:10:49;;;;;;;1255.87;595.70;;;;;;;;;;5076768;28;20199;-47
2023/03/19 04:13:17;;;;;;;331.80;142.87;;;;;;;;;;5076472;28;20207;-45
2023/03/19 04:15:44;;;;;;;177.30;59.90;;;;;;;;;;5076533;28;20294;-45
2023/03/19 04:18:12;;;;;;;179.80;54.87;;;;;;;;;;5076454;28;20222;-45
2023/03/19 04:20:40;;;;;;;135.17;45.80;;;;;;;;;;5077234;28;20214;-46
2023/03/19 04:23:08;;;;;;;91.27;38.00;;;;;;;;;;5076496;28;20618;-47
2023/03/19 04:25:39;;;;;;;77.93;35.83;;;;;;;;;;5076457;28;20196;-47
2023/03/19 04:28:07;;;;;;;84.73;36.83;;;;;;;;;;5076289;28;20191;-45
2023/03/19 04:30:34;;;;;;;66.30;34.37;;;;;;;;;;5087476;28;20699;-46
2023/03/19 04:33:03;;;;;;;188.77;82.73;;;;;;;;;;5097526;28;20206;-46
2023/03/19 04:35:30;;;;;;;164.33;53.13;;;;;;;;;;5097175;28;20236;-46
2023/03/19 04:37:58;;;;;;;189.30;52.73;;;;;;;;;;5096579;28;20198;-47
2023/03/19 04:40:25;;;;;;;136.33;43.43;;;;;;;;;;5096418;28;20293;-45
2023/03/19 04:42:53;;;;;;;93.03;37.60;;;;;;;;;;5087936;28;20219;-46
2023/03/19 04:45:39;;;;;;;75.60;34.20;;;;;;;;;;5102567;28;20195;-46
2023/03/19 04:48:07;;;;;;;66.90;34.67;;;;;;;;;;5095246;28;20195;-47
2023/03/19 04:50:35;;;;;;;69.57;35.57;;;;;;;;;;5095309;28;20199;-45
2023/03/19 04:53:02;;;;;;;422.17;175.50;;;;;;;;;;5096231;28;20230;-45
2023/03/19 04:55:30;;;;;;;496.63;217.33;;;;;;;;;;5093079;28;20621;-47
2023/03/19 04:58:08;;;;;;;161.37;60.07;;;;;;;;;;5092071;28;20255;-48
2023/03/19 05:00:36;;;;;;;82.63;36.57;;;;;;;;;;5094744;28;20242;-45
2023/03/19 05:03:06;;;;;;;95.40;39.83;;;;;;;;;;5092463;28;20233;-47
2023/03/19 05:05:34;;;;;;;88.57;37.27;;;;;;;;;;5085536;28;20207;-45
2023/03/19 05:08:07;;;;;;;77.93;37.17;;;;;;;;;;5095176;28;20252;-45
2023/03/19 05:10:36;;;;;;;81.63;38.13;;;;;;;;;;5094974;28;20195;-45
2023/03/19 05:13:05;;;;;;;70.80;35.77;;;;;;;;;;5092288;28;20203;-46
2023/03/19 05:15:37;;;;;;;140.77;60.63;;;;;;;;;;5094838;28;20294;-45
2023/03/19 05:18:07;;;;;;;192.03;61.37;;;;;;;;;;5092358;28;20206;-45
2023/03/19 05:20:41;;;;;;;138.33;44.00;;;;;;;;;;5093798;28;20213;-46
2023/03/19 05:23:17;;;;;;;109.00;42.10;;;;;;;;;;5090180;28;20211;-46
2023/03/19 05:26:10;;;;;;;76.77;36.13;;;;;;;;;;5091489;28;20227;-47
2023/03/19 05:29:03;;;;;;;71.90;35.57;;;;;;;;;;5070933;28;20195;-45
2023/03/19 05:31:46;;;;;;;84.37;38.80;;;;;;;;;;5091658;28;20191;-45
2023/03/19 05:34:14;;;;;;;361.63;130.67;;;;;;;;;;5095241;28;20308;-47
2023/03/19 05:36:41;;;;;;;265.67;98.57;;;;;;;;;;5094797;28;20191;-45
2023/03/19 05:39:14;;;;;;;156.43;50.33;;;;;;;;;;5094359;28;20194;-45
2023/03/19 05:41:43;;;;;;;1180.47;566.50;;;;;;;;;;5093701;28;20281;-49
2023/03/19 05:44:14;;;;;;;406.77;141.77;;;;;;;;;;5094187;28;20179;-46
2023/03/19 05:47:08;;;;;;;125.90;49.03;;;;;;;;;;5090582;28;20206;-45
2023/03/19 05:49:38;;;;;;;132.87;48.63;;;;;;;;;;5076902;28;20554;-46
2023/03/19 05:52:06;;;;;;;154.77;54.20;;;;;;;;;;5093119;28;20199;-46
2023/03/19 05:54:34;;;;;;;108.27;43.77;;;;;;;;;;5093829;28;20199;-47
2023/03/19 05:57:14;;;;;;;109.33;44.27;;;;;;;;;;5092279;28;20644;-45
2023/03/19 06:00:05;;;;;;;75.13;36.30;;;;;;;;;;5087939;28;20223;-45
2023/03/19 06:02:33;;;;;;;467.60;178.97;;;;;;;;;;5094534;28;20293;-45
2023/03/19 06:05:21;;;;;;;114.03;51.23;;;;;;;;;;5057997;28;20209;-46
2023/03/19 06:07:51;;;;;;;143.47;49.30;;;;;;;;;;5093417;28;20225;-45
2023/03/19 06:10:45;;;;;;;86.63;39.30;;;;;;;;;;5090694;28;20199;-46
2023/03/19 06:13:12;;;;;;;87.83;39.30;;;;;;;;;;5093305;28;20637;-45
2023/03/19 06:16:00;;;;;;;99.63;41.63;;;;;;;;;;5084153;28;20207;-45
2023/03/19 06:18:34;;;;;;;97.23;39.17;;;;;;;;;;5073357;28;20227;-45
2023/03/19 06:21:07;;;;;;;70.13;36.50;;;;;;;;;;5074725;28;20616;-47
2023/03/19 06:23:34;;;;;;;328.77;135.47;;;;;;;;;;5092526;28;20317;-45
2023/03/19 06:26:05;;;;;;;185.63;58.53;;;;;;;;;;5079617;28;20788;-46
2023/03/19 06:28:48;;;;;;;125.03;43.33;;;;;;;;;;5089809;28;20223;-46
2023/03/19 06:31:17;;;;;;;119.00;42.57;;;;;;;;;;5100152;28;20284;-44
2023/03/19 06:34:12;;;;;;;103.83;47.97;;;;;;;;;;5072429;28;20235;-50
2023/03/19 06:36:41;;;;;;;58.43;31.27;;;;;;;;;;5090679;28;20672;-45
2023/03/19 06:39:11;;;;;;;80.10;35.93;;;;;;;;;;5092460;28;20309;-45
2023/03/19 06:41:39;;;;;;;517.13;219.57;;;;;;;;;;5092982;28;20222;-45
2023/03/19 06:44:18;;;;;;;509.77;261.07;;;;;;;;;;5087718;28;20565;-44
2023/03/19 06:46:45;;;;;;;91.97;44.43;;;;;;;;;;5073098;28;20619;-50
2023/03/19 06:49:12;;;;;;;93.57;38.77;;;;;;;;;;5073397;28;20257;-49
2023/03/19 06:51:40;;;;;;;84.03;36.53;;;;;;;;;;5072753;28;20223;-45
2023/03/19 06:54:07;;;;;;;54.00;30.33;;;;;;;;;;5072930;28;20231;-50
2023/03/19 06:56:34;;;;;;;56.73;30.13;;;;;;;;;;5073200;28;20234;-45
2023/03/19 06:59:02;;;;;;;118.40;70.97;;;;;;;;;;5072349;28;20243;-52
2023/03/19 07:01:29;;;;;;;45.87;26.47;;;;;;;;;;5073066;28;20289;-49
2023/03/19 07:03:56;;;;;;;49.03;26.53;;;;;;;;;;5073139;28;20715;-46
2023/03/19 07:06:23;;;;;;;66.00;35.60;;;;;;;;;;5072719;28;20246;-45
2023/03/19 07:08:51;;;;;;;65.77;29.93;;;;;;;;;;5073119;28;20701;-49
2023/03/19 07:11:18;;;;;;;58.27;28.23;;;;;;;;;;5072861;28;20219;-45
2023/03/19 07:13:45;;;;;;;70.07;31.63;;;;;;;;;;5074467;28;20222;-47
2023/03/19 07:16:13;;;;;;;331.47;157.20;;;;;;;;;;5082449;28;20226;-51
2023/03/19 07:18:40;;;;;;;200.70;100.00;;;;;;;;;;5073062;28;20259;-45
2023/03/19 07:21:07;;;;;;;69.37;33.33;;;;;;;;;;5072315;28;20299;-44
2023/03/19 07:23:35;;;;;;;60.70;27.87;;;;;;;;;;5072663;28;20239;-46
2023/03/19 07:26:02;;;;;;;57.63;26.97;;;;;;;;;;5080351;28;20219;-46
2023/03/19 07:28:30;;;;;;;72.53;29.37;;;;;;;;;;5092453;28;20296;-44
2023/03/19 07:30:57;;;;;;;50.67;26.17;;;;;;;;;;5092669;28;20265;-47
2023/03/19 07:33:25;;;;;;;61.47;27.90;;;;;;;;;;5092670;28;20227;-46
2023/03/19 07:35:52;;;;;;;53.43;26.93;;;;;;;;;;5093528;28;20737;-44
2023/03/19 07:38:20;;;;;;;53.43;28.83;;;;;;;;;;5092452;28;20238;-45
2023/03/19 07:40:47;;;;;;;49.17;25.67;;;;;;;;;;5093772;28;20557;-45
2023/03/19 07:43:28;;;;;;;49.77;22.40;;;;;;;;;;5093035;28;20234;-45
2023/03/19 07:45:55;;;;;;;54.83;25.77;;;;;;;;;;5093890;28;20219;-46
2023/03/19 07:48:23;;;;;;;58.65;24.23;;;;;;;;;;5093573;28;20226;-46
2023/03/19 07:50:50;;;;;;;74.95;29.80;;;;;;;;;;5093719;28;20249;-45
2023/03/19 07:53:18;;;;;;;56.73;25.70;;;;;;;;;;5093307;28;20226;-46
2023/03/19 07:55:46;;;;;;;55.37;25.10;;;;;;;;;;5089415;28;20214;-45
2023/03/19 07:58:15;;;;;;;898.90;472.48;;;;;;;;;;5088045;28;20566;-47
2023/03/19 08:00:43;;;;;;;436.30;211.33;;;;;;;;;;5093906;28;20301;-46
2023/03/19 08:03:11;;;;;;;104.43;45.05;;;;;;;;;;5093545;28;20253;-48
2023/03/19 08:05:38;;;;;;;54.83;25.07;;;;;;;;;;5092450;28;20597;-46
2023/03/19 08:08:07;;;;;;;47.57;23.53;;;;;;;;;;5086336;28;20254;-47
2023/03/19 08:10:34;;;;;;;51.27;24.23;;;;;;;;;;5085789;28;20223;-48
2023/03/19 08:13:04;;;;;;;43.55;23.75;;;;;;;;;;5096581;28;20227;-51
2023/03/19 08:15:31;;;;;;;42.30;21.83;;;;;;;;;;5097272;28;20226;-46
2023/03/19 08:18:03;;;;;;;47.83;23.63;;;;;;;;;;5096968;28;20313;-46
2023/03/19 08:20:31;;;;;;;225.57;99.85;;;;;;;;;;5096722;28;20214;-46
2023/03/19 08:23:00;;;;;;;152.38;50.95;;;;;;;;;;5096759;28;20230;-47
2023/03/19 08:25:31;;;;;;;39.07;21.63;;;;;;;;;;5097044;28;20219;-46
2023/03/19 08:27:59;;;;;;;33.60;20.60;;;;;;;;;;5096679;28;20276;-48
2023/03/19 08:30:27;;;;;;;181.63;69.10;;;;;;;;;;5097022;28;20222;-46
2023/03/19 08:32:55;;;;;;;76.30;41.38;;;;;;;;;;5096885;28;20239;-46
2023/03/19 08:35:25;;;;;;;161.85;69.97;;;;;;;;;;5096477;28;20258;-48
2023/03/19 08:37:53;;;;;;;36.83;21.13;;;;;;;;;;5096640;28;20680;-46
2023/03/19 08:40:21;;;;;;;77.27;27.53;;;;;;;;;;5095915;28;20306;-49
2023/03/19 08:42:48;;;;;;;67.87;26.23;;;;;;;;;;5095507;28;20198;-45
2023/03/19 08:45:16;;;;;;;51.78;24.77;;;;;;;;;;5095782;28;20195;-49
2023/03/19 08:47:44;;;;;;;46.47;22.80;;;;;;;;;;5095780;28;20520;-47
2023/03/19 08:50:11;;;;;;;40.60;21.60;;;;;;;;;;5096182;28;20216;-45
2023/03/19 08:52:39;;;;;;;39.25;22.50;;;;;;;;;;5096803;28;20217;-46
2023/03/19 08:55:07;;;;;;;51.97;31.05;;;;;;;;;;5097101;28;20203;-45
2023/03/19 08:57:35;;;;;;;75.97;27.80;;;;;;;;;;5096958;28;20268;-45
2023/03/19 09:00:04;;;;;;;68.88;28.15;;;;;;;;;;5097041;28;20226;-46
2023/03/19 09:02:32;;;;;;;47.22;23.75;;;;;;;;;;5096802;28;20320;-45
2023/03/19 09:04:59;;;;;;;79.07;41.67;;;;;;;;;;5096752;28;20241;-45
2023/03/19 09:07:26;;;;;;;445.10;264.77;;;;;;;;;;5096667;28;20207;-46
2023/03/19 09:09:54;;;;;;;33.90;20.35;;;;;;;;;;5096502;28;20205;-46
2023/03/19 09:12:21;;;;;;;32.83;18.73;;;;;;;;;;5096839;28;20211;-50
2023/03/19 09:14:48;;;;;;;108.18;35.97;;;;;;;;;;5096621;28;20222;-49
2023/03/19 09:17:17;;;;;;;58.13;23.10;;;;;;;;;;5096458;28;20194;-46
2023/03/19 09:19:44;;;;;;;33.13;18.65;;;;;;;;;;5096676;28;20235;-46
2023/03/19 09:22:11;;;;;;;33.53;18.55;;;;;;;;;;5096424;28;20217;-47
2023/03/19 09:24:38;;;;;;;30.70;17.77;;;;;;;;;;5096270;28;20218;-48
2023/03/19 09:27:07;;;;;;;31.67;18.58;;;;;;;;;;5095852;28;20207;-46
2023/03/19 09:29:34;;;;;;;30.27;18.85;;;;;;;;;;5096340;28;20191;-46
2023/03/19 09:32:02;;;;;;;103.38;33.35;;;;;;;;;;5096385;28;20524;-45
2023/03/19 09:34:30;;;;;;;33.97;17.30;;;;;;;;;;5095995;28;20633;-46
2023/03/19 09:36:58;;;;;;;32.22;18.27;;;;;;;;;;5096052;28;20202;-47
2023/03/19 09:39:25;;;;;;;47.90;21.92;;;;;;;;;;5096249;28;20660;-45
2023/03/19 09:42:33;;;;;;;41.15;20.08;;;;;;;;;;5095807;28;20649;-44
2023/03/19 09:45:00;;;;;;;37.47;19.10;;;;;;;;;;5095648;28;20248;-44
2023/03/19 09:47:32;;;;;;;322.85;142.10;;;;;;;;;;5096057;28;20281;-46
2023/03/19 09:50:04;;;;;;;37.08;21.50;;;;;;;;;;5094950;28;20609;-46
2023/03/19 09:52:48;;;;;;;90.65;38.53;;;;;;;;;;5095287;28;20230;-46
2023/03/19 09:55:44;;;;;;;28.25;18.52;;;;;;;;;;5096052;28;20187;-47
2023/03/19 09:58:16;;;;;;;61.50;24.33;;;;;;;;;;5092379;28;20293;-49
2023/03/19 10:00:49;;;;;;;65.72;23.58;;;;;;;;;;5086813;28;20232;-46
2023/03/19 10:03:29;;;;;;;28.33;16.02;;;;;;;;;;5092844;28;20533;-46
2023/03/19 10:06:17;;;;;;;33.25;18.55;;;;;;;;;;5095864;28;20206;-46
2023/03/19 10:09:15;;;;;;;47.15;20.77;;;;;;;;;;5082993;28;20229;-48
2023/03/19 10:12:06;;;;;;;196.18;88.63;;;;;;;;;;5088656;28;20194;-47
2023/03/19 10:15:08;;;;;;;105.82;55.97;;;;;;;;;;5095768;28;20187;-45
2023/03/19 10:17:53;;;;;;;58.88;22.25;;;;;;;;;;5094919;28;20666;-48
2023/03/19 10:20:30;;;;;;;45.08;18.95;;;;;;;;;;5094633;28;20214;-46
2023/03/19 10:23:26;;;;;;;122.80;70.00;;;;;;;;;;5094307;28;20197;-44
2023/03/19 10:25:56;;;;;;;67.50;28.95;;;;;;;;;;5091303;28;20199;-46
2023/03/19 10:28:26;;;;;;;102.18;53.92;;;;;;;;;;5094223;28;20561;-47
2023/03/19 10:31:06;;;;;;;553.08;243.88;;;;;;;;;;5089585;28;20271;-52
2023/03/19 10:33:43;;;;;;;201.18;111.78;;;;;;;;;;5079650;28;20227;-45
2023/03/19 10:36:11;;;;;;;78.80;35.95;;;;;;;;;;5076109;28;20241;-46
2023/03/19 10:38:43;;;;;;;93.70;52.90;;;;;;;;;;5085974;28;20230;-47
2023/03/19 10:41:22;;;;;;;92.35;33.55;;;;;;;;;;5080541;28;20265;-45
2023/03/19 10:43:59;;;;;;;41.35;18.88;;;;;;;;;;5085365;28;20664;-51
2023/03/19 10:46:26;;;;;;;19.67;12.82;;;;;;;;;;5084777;28;20230;-47
2023/03/19 10:48:53;;;;;;;45.35;20.80;;;;;;;;;;5093156;28;20218;-49
2023/03/19 10:51:25;;;;;;;48.20;20.52;;;;;;;;;;5092801;28;20274;-44
2023/03/19 10:53:55;;;;;;;28.48;15.98;;;;;;;;;;5093180;28;20214;-45
2023/03/19 10:56:25;;;;;;;20.23;12.15;;;;;;;;;;5092454;28;20237;-51
2023/03/19 10:58:57;;;;;;;81.63;25.88;;;;;;;;;;5091430;28;20226;-49
2023/03/19 11:01:40;;;;;;;86.97;26.95;;;;;;;;;;5084586;28;20229;-47
2023/03/19 11:04:27;;;;;;;48.85;23.05;;;;;;;;;;5090715;28;20222;-43
2023/03/19 11:07:10;;;;;;;22.77;11.45;;;;;;;;;;5093759;28;20594;-44
2023/03/19 11:09:43;;;;;;;18.50;11.60;;;;;;;;;;5085312;28;20242;-47
2023/03/19 11:12:41;;;;;;;97.00;30.98;;;;;;;;;;5084130;28;20223;-48
2023/03/19 11:15:21;;;;;;;24.88;13.73;;;;;;;;;;5029009;28;20221;-56
2023/03/19 11:17:56;;;;;;;51.22;21.95;;;;;;;;;;5030143;28;20220;-51
2023/03/19 11:20:33;;;;;;;33.60;18.20;;;;;;;;;;5027482;28;20556;-52
2023/03/19 11:23:08;;;;;;;22.13;11.18;;;;;;;;;;5028506;28;20235;-47
2023/03/19 11:25:46;;;;;;;17.42;11.02;;;;;;;;;;5028702;28;20298;-48
2023/03/19 11:28:17;;;;;;;18.95;11.02;;;;;;;;;;5025587;28;20620;-45
2023/03/19 11:31:12;;;;;;;19.58;11.07;;;;;;;;;;5024430;28;20220;-49
2023/03/19 11:34:13;;;;;;;25.98;12.75;;;;;;;;;;5024545;28;20220;-48
2023/03/19 11:37:02;;;;;;;19.30;11.73;;;;;;;;;;5010418;28;20572;-45
2023/03/19 11:39:38;;;;;;;23.60;13.05;;;;;;;;;;5024367;28;20235;-49
2023/03/19 11:42:27;;;;;;;163.20;55.20;;;;;;;;;;5027244;28;20311;-46
2023/03/19 11:45:06;;;;;;;198.80;76.97;;;;;;;;;;5030210;28;20298;-46
2023/03/19 11:47:51;;;;;;;79.97;42.80;;;;;;;;;;5034235;28;20224;-45
2023/03/19 11:50:46;;;;;;;20.05;11.00;;;;;;;;;;5034549;28;20747;-47
2023/03/19 11:53:35;;;;;;;19.05;11.10;;;;;;;;;;5094660;28;20310;-46
2023/03/19 11:56:35;;;;;;;20.33;11.45;;;;;;;;;;5095058;28;20214;-47
2023/03/19 11:59:05;;;;;;;58.97;23.00;;;;;;;;;;5080685;28;20562;-48
2023/03/19 12:01:58;;;;;;;20.27;10.50;;;;;;;;;;5084649;28;20231;-46
2023/03/19 12:04:43;;;;;;;48.05;20.73;;;;;;;;;;5081682;28;20664;-46
2023/03/19 12:07:22;;;;;;;21.70;11.68;;;;;;;;;;5094930;28;20679;-51
2023/03/19 12:10:00;;;;;;;17.48;10.48;;;;;;;;;;5096377;28;20217;-50
2023/03/19 12:12:34;;;;;;;17.33;10.82;;;;;;;;;;5096527;28;20271;-46
2023/03/19 12:15:56;;;;;;;19.35;10.73;;;;;;;;;;5095700;28;20233;-47
2023/03/19 12:18:46;;;;;;;102.25;34.85;;;;;;;;;;5079679;28;20222;-47
2023/03/19 12:21:22;;;;;;;54.15;22.92;;;;;;;;;;5095732;28;20617;-48
2023/03/19 12:24:03;;;;;;;18.58;11.20;;;;;;;;;;5095997;28;20571;-46
2023/03/19 12:26:30;;;;;;;18.73;11.15;;;;;;;;;;5095786;28;20215;-45
2023/03/19 12:29:05;;;;;;;17.63;10.98;;;;;;;;;;5095709;28;20223;-48
2023/03/19 12:31:52;;;;;;;17.38;10.50;;;;;;;;;;5095334;28;20257;-46
2023/03/19 12:34:32;;;;;;;27.95;14.75;;;;;;;;;;5079326;28;20231;-46
2023/03/19 12:37:18;;;;;;;66.50;30.10;;;;;;;;;;5092442;28;20249;-44
2023/03/19 12:40:05;;;;;;;46.85;22.20;;;;;;;;;;5095758;28;20222;-44
2023/03/19 12:42:38;;;;;;;21.45;11.65;;;;;;;;;;5083509;28;20222;-45
2023/03/19 12:45:30;;;;;;;17.55;10.93;;;;;;;;;;5087337;28;20230;-45
2023/03/19 12:48:11;;;;;;;18.30;11.45;;;;;;;;;;5086826;28;20233;-46
2023/03/19 12:50:40;;;;;;;16.67;10.98;;;;;;;;;;5095637;28;20245;-45
2023/03/19 12:53:27;;;;;;;16.27;10.15;;;;;;;;;;5094863;28;20253;-46
2023/03/19 12:55:57;;;;;;;26.88;15.05;;;;;;;;;;5074675;28;20595;-47
2023/03/19 12:58:49;;;;;;;62.53;28.45;;;;;;;;;;5072832;28;20231;-48
2023/03/19 13:01:21;;;;;;;38.90;20.02;;;;;;;;;;5083550;28;20207;-46
2023/03/19 13:04:03;;;;;;;23.30;12.48;;;;;;;;;;5094843;28;21302;-45
2023/03/19 13:06:36;;;;;;;17.05;9.80;;;;;;;;;;5084135;28;20293;-54
2023/03/19 13:09:13;;;;;;;16.63;9.63;;;;;;;;;;5077799;28;20235;-46
2023/03/19 13:11:54;;;;;;;17.20;10.73;;;;;;;;;;5085171;28;20287;-46
2023/03/19 13:14:36;;;;;;;23.75;13.80;;;;;;;;;;5092069;28;20210;-46
2023/03/19 13:17:27;;;;;;;28.65;17.25;;;;;;;;;;5093443;28;20241;-47
2023/03/19 13:19:55;;;;;;;35.10;15.77;;;;;;;;;;5081597;28;20238;-45
2023/03/19 13:22:29;;;;;;;44.58;18.40;;;;;;;;;;5094377;28;20237;-45
2023/03/19 13:24:58;;;;;;;113.25;44.83;;;;;;;;;;5091420;28;20237;-45
2023/03/19 13:27:30;;;;;;;47.60;24.33;;;;;;;;;;5092050;28;20649;-51
2023/03/19 13:30:17;;;;;;;50.05;25.38;;;;;;;;;;5094175;28;20313;-46
2023/03/19 13:32:49;;;;;;;44.75;20.40;;;;;;;;;;5088794;28;20672;-46
2023/03/19 13:35:27;;;;;;;35.67;19.27;;;;;;;;;;5100201;28;20218;-47
2023/03/19 13:38:04;;;;;;;38.25;15.35;;;;;;;;;;5094648;28;20226;-47
2023/03/19 13:40:45;;;;;;;33.63;13.50;;;;;;;;;;5092340;28;20214;-48
2023/03/19 13:43:36;;;;;;;29.88;12.02;;;;;;;;;;5074859;28;20633;-49
2023/03/19 13:46:16;;;;;;;27.85;14.45;;;;;;;;;;5083369;28;20554;-50
2023/03/19 13:48:44;;;;;;;936.38;520.97;;;;;;;;;;5094404;28;20684;-48
2023/03/19 13:51:16;;;;;;;381.67;167.13;;;;;;;;;;5095466;28;20221;-46
2023/03/19 13:54:00;;;;;;;86.45;34.38;;;;;;;;;;5095086;28;20905;-46
2023/03/19 13:56:27;;;;;;;59.85;23.40;;;;;;;;;;5091504;28;20208;-45
2023/03/19 13:59:23;;;;;;;47.35;15.77;;;;;;;;;;5091586;28;20283;-46
2023/03/19 14:01:50;;;;;;;24.50;11.02;;;;;;;;;;5095005;28;20233;-46
2023/03/19 14:04:20;;;;;;;28.60;12.05;;;;;;;;;;5093351;28;20367;-47
2023/03/19 14:06:54;;;;;;;18.95;10.50;;;;;;;;;;5095072;28;20218;-45
2023/03/19 14:09:44;;;;;;;34.85;16.35;;;;;;;;;;5094148;28;20225;-46
2023/03/19 14:12:14;;;;;;;63.17;31.90;;;;;;;;;;5093442;28;20544;-47
2023/03/19 14:14:44;;;;;;;52.30;19.40;;;;;;;;;;5094646;28;20222;-47
2023/03/19 14:17:17;;;;;;;73.65;20.20;;;;;;;;;;5086477;28;20313;-46
2023/03/19 14:19:46;;;;;;;135.73;41.35;;;;;;;;;;5094539;28;20237;-45
2023/03/19 14:22:22;;;;;;;179.93;78.75;;;;;;;;;;5094042;28;20230;-45
2023/03/19 14:25:16;;;;;;;22.20;10.18;;;;;;;;;;5094536;28;20234;-45
2023/03/19 14:27:49;;;;;;;14.65;8.70;;;;;;;;;;5094955;28;20279;-44
2023/03/19 14:30:31;;;;;;;21.98;14.15;;;;;;;;;;5092924;28;20198;-44
2023/03/19 14:33:02;;;;;;;20.83;12.30;;;;;;;;;;5091604;28;20183;-44
2023/03/19 14:35:35;;;;;;;16.35;9.73;;;;;;;;;;5086861;28;20221;-45
2023/03/19 14:38:10;;;;;;;21.08;12.25;;;;;;;;;;5074710;28;20187;-46
2023/03/19 14:40:43;;;;;;;17.30;10.55;;;;;;;;;;5072572;28;20687;-44
2023/03/19 14:43:51;;;;;;;16.85;10.25;;;;;;;;;;5072768;28;20215;-44
2023/03/19 14:46:27;;;;;;;14.75;9.23;;;;;;;;;;5087946;28;20637;-44
2023/03/19 14:49:31;;;;;;;15.43;9.00;;;;;;;;;;5093180;28;20232;-45